Time;durP1;ratioP1;P1;durP2;ratioP2;P2;SDS_P1;SDS_P2;PMS_P1;PMS_P2;Temp;Humidity;BMP_temperature;BMP_pressure;BME280_temperature;BME280_humidity;BME280_pressure;Samples;Min_cycle;Max_cycle;Signal;HPM_P1;HPM_P2
2023/07/01 00:02:12;;;;;;;4.43;1.70;;;19.80;99.90;;;;;;5016051;28;20166;-71
2023/07/01 00:04:40;;;;;;;1.83;1.60;;;19.70;99.90;;;;;;5015257;28;20209;-73
2023/07/01 00:07:08;;;;;;;3.28;1.83;;;19.70;99.90;;;;;;5022703;28;20284;-72
2023/07/01 00:09:34;;;;;;;2.00;1.80;;;19.70;99.90;;;;;;5014486;28;20180;-73
2023/07/01 00:12:00;;;;;;;2.17;1.60;;;19.70;99.90;;;;;;5034801;28;20182;-74
2023/07/01 00:14:27;;;;;;;2.35;1.70;;;19.70;99.90;;;;;;5018406;28;20182;-72
2023/07/01 00:16:55;;;;;;;2.25;1.60;;;19.70;99.90;;;;;;5017254;28;20174;-73
2023/07/01 00:19:21;;;;;;;3.50;1.73;;;19.60;99.90;;;;;;5019400;28;20201;-73
2023/07/01 00:21:49;;;;;;;1.88;1.63;;;19.60;99.90;;;;;;5024627;28;20174;-69
2023/07/01 00:24:19;;;;;;;2.47;1.50;;;19.60;99.90;;;;;;5034253;28;20229;-72
2023/07/01 00:26:45;;;;;;;2.58;1.80;;;19.60;99.90;;;;;;5039065;28;20194;-73
2023/07/01 00:29:13;;;;;;;2.90;1.60;;;19.60;99.90;;;;;;5024622;28;20170;-74
2023/07/01 00:31:43;;;;;;;2.20;2.00;;;19.60;99.90;;;;;;5028503;28;20245;-71
2023/07/01 00:34:09;;;;;;;3.33;1.88;;;19.60;99.90;;;;;;5016449;28;20354;-73
2023/07/01 00:36:37;;;;;;;2.60;1.70;;;19.50;99.90;;;;;;5022910;28;20444;-73
2023/07/01 00:39:03;;;;;;;2.13;1.73;;;19.50;99.90;;;;;;5026107;28;20186;-73
2023/07/01 00:41:29;;;;;;;2.15;1.60;;;19.50;99.90;;;;;;5019302;28;20198;-74
2023/07/01 00:43:55;;;;;;;1.58;1.30;;;19.50;99.90;;;;;;5016572;28;20209;-73
2023/07/01 00:46:21;;;;;;;1.83;1.60;;;19.60;99.90;;;;;;5023461;28;20196;-74
2023/07/01 00:48:47;;;;;;;3.22;1.70;;;19.60;99.90;;;;;;5020492;28;20216;-74
2023/07/01 00:51:13;;;;;;;2.70;1.45;;;19.60;99.90;;;;;;5029935;28;20201;-72
2023/07/01 00:53:42;;;;;;;1.50;1.27;;;19.60;99.90;;;;;;5021201;28;20247;-71
2023/07/01 00:56:08;;;;;;;1.50;1.40;;;19.70;99.90;;;;;;5020327;28;20182;-72
2023/07/01 00:58:34;;;;;;;2.00;1.65;;;19.70;99.90;;;;;;5021236;28;20188;-71
2023/07/01 01:01:07;;;;;;;1.75;1.30;;;19.70;99.90;;;;;;5017777;28;20198;-74
2023/07/01 01:03:43;;;;;;;3.15;1.52;;;19.80;99.90;;;;;;5020951;28;20213;-73
2023/07/01 01:06:24;;;;;;;2.67;1.50;;;19.80;99.90;;;;;;5041010;28;20287;-74
2023/07/01 01:09:01;;;;;;;1.92;1.30;;;19.80;99.90;;;;;;5057857;28;20227;-72
2023/07/01 01:11:31;;;;;;;3.05;1.77;;;19.80;99.90;;;;;;5041655;28;20190;-73
2023/07/01 01:14:01;;;;;;;3.70;1.30;;;19.90;99.90;;;;;;5010532;28;20178;-73
2023/07/01 01:16:29;;;;;;;2.00;1.40;;;19.90;99.90;;;;;;5023194;28;20182;-73
2023/07/01 01:18:57;;;;;;;1.65;1.40;;;19.90;99.90;;;;;;5037921;28;20241;-72
2023/07/01 01:21:27;;;;;;;1.95;1.30;;;19.90;99.90;;;;;;5035316;28;20293;-72
2023/07/01 01:24:04;;;;;;;2.58;1.38;;;19.90;99.90;;;;;;5025684;28;20368;-72
2023/07/01 01:26:38;;;;;;;2.67;1.48;;;19.90;99.90;;;;;;5023928;28;20176;-73
2023/07/01 01:29:06;;;;;;;2.30;1.48;;;20.00;99.90;;;;;;5016952;28;20171;-73
2023/07/01 01:31:33;;;;;;;1.83;1.17;;;20.00;99.90;;;;;;5019600;28;20390;-72
2023/07/01 01:34:01;;;;;;;1.90;1.42;;;20.00;99.90;;;;;;5032692;28;20208;-72
2023/07/01 01:36:50;;;;;;;1.95;1.50;;;20.00;99.90;;;;;;5026828;28;20208;-74
2023/07/01 01:39:21;;;;;;;1.40;1.30;;;20.10;99.90;;;;;;5035318;28;20292;-74
2023/07/01 01:42:03;;;;;;;1.52;1.23;;;20.10;99.90;;;;;;5041308;28;20273;-75
2023/07/01 01:44:47;;;;;;;1.73;1.42;;;20.10;99.90;;;;;;5018505;28;20213;-72
2023/07/01 01:47:20;;;;;;;1.90;1.55;;;20.10;99.90;;;;;;5016576;28;20173;-73
2023/07/01 01:49:51;;;;;;;1.58;1.40;;;20.10;99.90;;;;;;5032793;28;20186;-75
2023/07/01 01:52:20;;;;;;;2.53;1.65;;;20.10;99.90;;;;;;5020154;28;20194;-72
2023/07/01 01:54:52;;;;;;;3.08;1.55;;;20.10;99.90;;;;;;5019548;28;20185;-76
2023/07/01 01:57:21;;;;;;;2.85;1.50;;;20.10;99.90;;;;;;5035618;28;20174;-71
2023/07/01 01:59:46;;;;;;;3.05;1.30;;;20.10;99.90;;;;;;5013294;28;20182;-72
2023/07/01 02:02:12;;;;;;;1.77;1.38;;;20.10;99.90;;;;;;5016277;28;20265;-73
2023/07/01 02:04:40;;;;;;;1.92;1.33;;;20.10;99.90;;;;;;5027093;28;20206;-70
2023/07/01 02:07:06;;;;;;;2.60;1.50;;;20.10;99.90;;;;;;5018859;28;20186;-73
2023/07/01 02:09:32;;;;;;;1.52;1.30;;;20.10;99.90;;;;;;5018304;28;20210;-74
2023/07/01 02:11:57;;;;;;;1.80;1.40;;;20.20;99.90;;;;;;5020911;28;20241;-75
2023/07/01 02:14:28;;;;;;;1.95;1.13;;;20.20;99.90;;;;;;5035093;28;20182;-73
2023/07/01 02:16:54;;;;;;;1.83;1.25;;;20.20;99.90;;;;;;5034657;28;20204;-72
2023/07/01 02:19:25;;;;;;;1.35;1.20;;;20.20;99.90;;;;;;5031452;28;20206;-65
2023/07/01 02:21:55;;;;;;;2.72;1.60;;;20.20;99.90;;;;;;5025172;28;20178;-69
2023/07/01 02:24:21;;;;;;;2.20;1.58;;;20.20;99.90;;;;;;5038580;28;20213;-67
2023/07/01 02:26:46;;;;;;;2.13;1.48;;;20.20;99.90;;;;;;5020188;28;20264;-69
2023/07/01 02:29:14;;;;;;;2.13;1.35;;;20.30;99.90;;;;;;5035389;28;20186;-69
2023/07/01 02:31:40;;;;;;;1.88;1.30;;;20.30;99.90;;;;;;5035447;28;20198;-69
2023/07/01 02:34:06;;;;;;;1.95;1.60;;;20.20;99.90;;;;;;5017306;28;20270;-69
2023/07/01 02:36:31;;;;;;;2.47;1.38;;;20.30;99.90;;;;;;5018829;28;20203;-70
2023/07/01 02:38:57;;;;;;;1.80;1.35;;;20.20;99.90;;;;;;5018780;28;20277;-66
2023/07/01 02:41:25;;;;;;;2.75;1.70;;;20.20;99.90;;;;;;5011687;28;20197;-67
2023/07/01 02:43:53;;;;;;;1.35;1.25;;;20.20;99.90;;;;;;5017737;28;20210;-69
2023/07/01 02:46:20;;;;;;;1.95;1.65;;;20.20;99.90;;;;;;5018870;28;20267;-68
2023/07/01 02:48:49;;;;;;;1.70;1.38;;;20.10;99.90;;;;;;5025608;28;20337;-66
2023/07/01 02:51:16;;;;;;;1.42;1.33;;;20.10;99.90;;;;;;5018714;28;20240;-70
2023/07/01 02:53:42;;;;;;;2.53;1.30;;;20.10;99.90;;;;;;5017474;28;20189;-69
2023/07/01 02:56:10;;;;;;;2.60;1.50;;;20.10;99.90;;;;;;5032766;28;20197;-68
2023/07/01 02:58:38;;;;;;;2.08;1.60;;;20.10;99.90;;;;;;5014531;28;20273;-70
2023/07/01 03:01:04;;;;;;;1.75;1.30;;;20.00;99.90;;;;;;5013664;28;20189;-66
2023/07/01 03:03:31;;;;;;;3.63;1.40;;;20.00;99.90;;;;;;5018330;28;20194;-69
2023/07/01 03:05:57;;;;;;;2.70;1.50;;;20.00;99.90;;;;;;5018350;28;20432;-67
2023/07/01 03:08:23;;;;;;;2.13;1.30;;;20.00;99.90;;;;;;5018398;28;20198;-70
2023/07/01 03:10:51;;;;;;;1.92;1.30;;;19.90;99.90;;;;;;5034375;28;20179;-70
2023/07/01 03:13:16;;;;;;;1.50;1.40;;;20.00;99.90;;;;;;5035034;28;20178;-70
2023/07/01 03:15:45;;;;;;;2.10;1.50;;;19.90;99.90;;;;;;5036884;28;20272;-68
2023/07/01 03:18:15;;;;;;;1.90;1.48;;;19.90;99.90;;;;;;5043767;28;20273;-69
2023/07/01 03:20:40;;;;;;;1.88;1.38;;;19.90;99.90;;;;;;5029204;28;20202;-70
2023/07/01 03:23:06;;;;;;;2.05;1.65;;;19.90;99.90;;;;;;5011429;28;20252;-68
2023/07/01 03:25:35;;;;;;;2.88;1.77;;;19.90;99.90;;;;;;5023661;28;20185;-69
2023/07/01 03:28:03;;;;;;;2.92;1.85;;;19.90;99.90;;;;;;5020620;28;20196;-70
2023/07/01 03:30:30;;;;;;;2.70;2.05;;;19.90;99.90;;;;;;5016541;28;20182;-69
2023/07/01 03:32:56;;;;;;;2.15;1.50;;;20.00;99.90;;;;;;5019212;28;20198;-69
2023/07/01 03:35:22;;;;;;;2.63;1.90;;;20.00;99.90;;;;;;5028802;28;20228;-68
2023/07/01 03:37:50;;;;;;;1.63;1.40;;;20.00;99.90;;;;;;5025882;28;20181;-69
2023/07/01 03:40:20;;;;;;;1.67;1.40;;;20.00;99.90;;;;;;5037377;28;20212;-68
2023/07/01 03:42:48;;;;;;;1.60;1.33;;;20.00;99.90;;;;;;5017709;28;20307;-69
2023/07/01 03:45:14;;;;;;;1.40;1.30;;;20.00;99.90;;;;;;5034485;28;20170;-67
2023/07/01 03:47:44;;;;;;;1.67;1.30;;;20.00;99.90;;;;;;5012520;28;20195;-70
2023/07/01 03:50:13;;;;;;;1.90;1.60;;;20.10;99.90;;;;;;5020783;28;20178;-66
2023/07/01 03:52:40;;;;;;;1.85;1.48;;;20.10;99.90;;;;;;5033701;28;20184;-70
2023/07/01 03:55:07;;;;;;;1.70;1.30;;;20.10;99.90;;;;;;5018011;28;20364;-69
2023/07/01 03:57:34;;;;;;;1.52;1.27;;;20.10;99.90;;;;;;5018432;28;20266;-69
2023/07/01 04:00:21;;;;;;;2.03;1.35;;;20.10;99.90;;;;;;5023988;28;20240;-69
2023/07/01 04:02:51;;;;;;;1.30;1.20;;;20.10;99.90;;;;;;5018871;28;20197;-68
2023/07/01 04:05:18;;;;;;;2.42;1.60;;;20.10;99.90;;;;;;5020260;28;20174;-68
2023/07/01 04:07:46;;;;;;;1.77;1.40;;;20.10;99.90;;;;;;5035560;28;20193;-68
2023/07/01 04:10:12;;;;;;;1.50;1.40;;;20.10;99.90;;;;;;5018402;28;20275;-67
2023/07/01 04:12:39;;;;;;;3.13;1.55;;;20.10;99.90;;;;;;5033496;28;20228;-68
2023/07/01 04:15:11;;;;;;;2.45;1.35;;;20.10;99.90;;;;;;5025543;28;20194;-68
2023/07/01 04:17:44;;;;;;;2.88;1.60;;;20.10;99.90;;;;;;5017950;28;20388;-69
2023/07/01 04:20:14;;;;;;;1.50;1.27;;;20.10;99.90;;;;;;5016545;28;20201;-69
2023/07/01 04:22:40;;;;;;;1.55;1.30;;;20.10;99.90;;;;;;5024684;28;20170;-67
2023/07/01 04:25:09;;;;;;;2.15;1.40;;;20.10;99.90;;;;;;5020524;28;20368;-70
2023/07/01 04:27:36;;;;;;;1.90;1.40;;;20.10;99.90;;;;;;5015605;28;20288;-70
2023/07/01 04:30:02;;;;;;;1.85;1.20;;;20.10;99.90;;;;;;5018456;28;20239;-65
2023/07/01 04:32:30;;;;;;;2.20;1.33;;;20.10;99.90;;;;;;5017086;28;20266;-68
2023/07/01 04:34:58;;;;;;;2.58;2.03;;;20.10;99.90;;;;;;5023426;28;20216;-70
2023/07/01 04:37:26;;;;;;;2.00;1.60;;;20.10;99.90;;;;;;5032883;28;20170;-69
2023/07/01 04:39:52;;;;;;;1.70;1.50;;;20.10;99.90;;;;;;5014386;28;20442;-69
2023/07/01 04:42:18;;;;;;;2.17;1.52;;;20.10;99.90;;;;;;5022588;28;20166;-69
2023/07/01 04:44:53;;;;;;;2.30;1.50;;;20.10;99.90;;;;;;5019109;28;20202;-67
2023/07/01 04:47:23;;;;;;;2.08;1.40;;;20.10;99.90;;;;;;5032709;28;20174;-68
2023/07/01 04:49:52;;;;;;;2.53;1.27;;;20.10;99.90;;;;;;5017803;28;20205;-64
2023/07/01 04:52:22;;;;;;;1.67;1.10;;;20.20;99.90;;;;;;5034804;28;20201;-69
2023/07/01 04:54:51;;;;;;;1.75;1.30;;;20.20;99.90;;;;;;5019650;28;20269;-69
2023/07/01 04:57:19;;;;;;;1.80;1.38;;;20.20;99.90;;;;;;5016171;28;20472;-69
2023/07/01 04:59:45;;;;;;;1.70;1.30;;;20.20;99.90;;;;;;5026930;28;20235;-69
2023/07/01 05:02:13;;;;;;;2.15;1.20;;;20.20;99.90;;;;;;5028052;28;20206;-69
2023/07/01 05:04:39;;;;;;;2.72;1.52;;;20.20;99.90;;;;;;5017403;28;20300;-67
2023/07/01 05:07:09;;;;;;;1.67;1.38;;;20.20;99.90;;;;;;5030030;28;20195;-66
2023/07/01 05:09:39;;;;;;;1.67;1.20;;;20.30;99.90;;;;;;5016726;28;20456;-63
2023/07/01 05:12:05;;;;;;;2.72;1.63;;;20.30;99.90;;;;;;5022797;28;20190;-67
2023/07/01 05:14:31;;;;;;;3.42;1.90;;;20.30;99.90;;;;;;5033320;28;20188;-66
2023/07/01 05:16:58;;;;;;;2.20;1.50;;;20.30;99.90;;;;;;5017004;28;20202;-67
2023/07/01 05:19:24;;;;;;;1.90;1.63;;;20.30;99.90;;;;;;5016827;28;20244;-69
2023/07/01 05:21:53;;;;;;;1.98;1.52;;;20.30;99.90;;;;;;5017068;28;20178;-66
2023/07/01 05:24:19;;;;;;;2.88;1.42;;;20.40;99.90;;;;;;5025355;28;20182;-66
2023/07/01 05:26:50;;;;;;;2.85;1.67;;;20.40;99.90;;;;;;5014803;28;20171;-64
2023/07/01 05:29:15;;;;;;;2.13;1.40;;;20.40;99.90;;;;;;5016514;28;20186;-68
2023/07/01 05:31:44;;;;;;;1.33;1.23;;;20.40;99.90;;;;;;5018546;28;20173;-67
2023/07/01 05:34:11;;;;;;;3.25;1.20;;;20.40;99.90;;;;;;5019890;28;20178;-64
2023/07/01 05:36:39;;;;;;;2.95;1.30;;;20.40;99.90;;;;;;5017081;28;20202;-68
2023/07/01 05:39:05;;;;;;;2.80;1.58;;;20.40;99.90;;;;;;5021939;28;20246;-67
2023/07/01 05:41:31;;;;;;;2.67;1.50;;;20.40;99.90;;;;;;5035499;28;20323;-65
2023/07/01 05:43:57;;;;;;;1.35;1.25;;;20.40;99.90;;;;;;5028144;28;20247;-68
2023/07/01 05:46:22;;;;;;;4.03;1.50;;;20.40;99.90;;;;;;5018751;28;20209;-70
2023/07/01 05:48:53;;;;;;;1.70;1.40;;;20.40;99.90;;;;;;5018415;28;20190;-68
2023/07/01 05:51:21;;;;;;;1.70;1.27;;;20.40;99.90;;;;;;5018390;28;20174;-64
2023/07/01 05:53:46;;;;;;;2.22;1.48;;;20.40;99.90;;;;;;5035005;28;20217;-68
2023/07/01 05:56:12;;;;;;;1.90;1.40;;;20.40;99.90;;;;;;5017439;28;20222;-67
2023/07/01 05:58:40;;;;;;;1.88;1.50;;;20.40;99.90;;;;;;5035895;28;20449;-67
2023/07/01 06:01:08;;;;;;;1.50;1.23;;;20.30;99.90;;;;;;5026101;28;20433;-66
2023/07/01 06:03:36;;;;;;;1.55;1.40;;;20.30;99.90;;;;;;5033856;28;20233;-68
2023/07/01 06:06:06;;;;;;;1.85;1.42;;;20.30;99.90;;;;;;5016146;28;20175;-67
2023/07/01 06:08:34;;;;;;;1.95;1.55;;;20.30;99.90;;;;;;5023294;28;20178;-69
2023/07/01 06:11:01;;;;;;;1.80;1.40;;;20.30;99.90;;;;;;5017490;28;20198;-67
2023/07/01 06:13:27;;;;;;;1.95;1.40;;;20.30;99.90;;;;;;5025043;28;20178;-68
2023/07/01 06:15:53;;;;;;;3.22;1.80;;;20.30;99.90;;;;;;5018527;28;20189;-65
2023/07/01 06:18:18;;;;;;;1.70;1.40;;;20.30;99.90;;;;;;5034554;28;20198;-67
2023/07/01 06:20:46;;;;;;;1.90;1.58;;;20.30;99.90;;;;;;5023237;28;20174;-68
2023/07/01 06:23:12;;;;;;;2.28;1.77;;;20.30;99.90;;;;;;5022017;28;20269;-67
2023/07/01 06:25:38;;;;;;;2.15;1.35;;;20.40;99.90;;;;;;5035203;28;20178;-69
2023/07/01 06:28:04;;;;;;;1.95;1.42;;;20.40;99.90;;;;;;5021777;28;20190;-68
2023/07/01 06:30:29;;;;;;;2.17;1.60;;;20.40;99.90;;;;;;5022353;28;20293;-69
2023/07/01 06:32:55;;;;;;;4.05;1.70;;;20.40;99.90;;;;;;5017332;28;20205;-69
2023/07/01 06:35:21;;;;;;;2.35;1.65;;;20.50;99.90;;;;;;5017259;28;20193;-68
2023/07/01 06:37:49;;;;;;;3.00;1.60;;;20.50;99.90;;;;;;5022145;28;20209;-67
2023/07/01 06:40:14;;;;;;;2.22;1.70;;;20.50;99.90;;;;;;5036237;28;20170;-68
2023/07/01 06:42:43;;;;;;;2.63;1.73;;;20.50;99.90;;;;;;5018697;28;20197;-69
2023/07/01 06:45:09;;;;;;;2.40;1.80;;;20.50;99.90;;;;;;5015002;28;20178;-65
2023/07/01 06:47:34;;;;;;;1.85;1.52;;;20.50;99.90;;;;;;5016076;28;20182;-68
2023/07/01 06:50:00;;;;;;;2.65;1.80;;;20.50;99.90;;;;;;5026583;28;20206;-66
2023/07/01 06:52:28;;;;;;;3.78;2.20;;;20.50;99.90;;;;;;5023184;28;20351;-69
2023/07/01 06:54:53;;;;;;;2.17;1.52;;;20.50;99.90;;;;;;5032652;28;20175;-69
2023/07/01 06:57:19;;;;;;;1.88;1.33;;;20.60;99.90;;;;;;5021308;28;20184;-69
2023/07/01 06:59:45;;;;;;;3.58;1.50;;;20.60;99.90;;;;;;5020060;28;20177;-65
2023/07/01 07:02:12;;;;;;;1.63;1.27;;;20.60;99.90;;;;;;5031503;28;20282;-69
2023/07/01 07:04:43;;;;;;;2.85;1.77;;;20.60;99.90;;;;;;5021253;28;20190;-69
2023/07/01 07:07:08;;;;;;;2.10;1.55;;;20.60;99.90;;;;;;5026687;28;20193;-67
2023/07/01 07:09:36;;;;;;;2.58;1.58;;;20.60;99.90;;;;;;5015386;28;20237;-64
2023/07/01 07:12:02;;;;;;;2.22;1.63;;;20.60;99.90;;;;;;5015678;28;20205;-69
2023/07/01 07:14:30;;;;;;;4.75;1.88;;;20.60;99.90;;;;;;5006922;28;20178;-69
2023/07/01 07:16:55;;;;;;;4.35;2.13;;;20.50;99.90;;;;;;5018402;28;20178;-68
2023/07/01 07:19:21;;;;;;;2.20;1.70;;;20.40;99.90;;;;;;5021495;28;20169;-68
2023/07/01 07:21:46;;;;;;;2.05;1.60;;;20.40;99.90;;;;;;5036113;28;20201;-67
2023/07/01 07:24:13;;;;;;;1.80;1.40;;;20.30;99.90;;;;;;5014817;28;20277;-68
2023/07/01 07:26:42;;;;;;;3.22;1.25;;;20.20;99.90;;;;;;5013151;28;20175;-68
2023/07/01 07:29:07;;;;;;;1.83;1.42;;;20.20;99.90;;;;;;5017962;28;20284;-68
2023/07/01 07:31:33;;;;;;;2.40;1.30;;;20.20;99.90;;;;;;5027556;28;20273;-68
2023/07/01 07:33:59;;;;;;;3.10;1.60;;;20.10;99.90;;;;;;5025409;28;20209;-68
2023/07/01 07:36:24;;;;;;;2.67;1.70;;;20.10;99.90;;;;;;5013290;28;20174;-68
2023/07/01 07:38:50;;;;;;;2.00;1.50;;;20.00;99.90;;;;;;5033846;28;20174;-69
2023/07/01 07:41:20;;;;;;;1.85;1.50;;;20.00;99.90;;;;;;5017670;28;20178;-68
2023/07/01 07:43:48;;;;;;;2.88;1.60;;;20.00;99.90;;;;;;5013171;28;20190;-68
2023/07/01 07:46:13;;;;;;;2.08;1.38;;;20.10;99.90;;;;;;5026461;28;20181;-70
2023/07/01 07:48:39;;;;;;;3.70;1.50;;;20.10;99.90;;;;;;5020435;28;20202;-69
2023/07/01 07:51:05;;;;;;;2.70;1.80;;;20.10;99.90;;;;;;5023598;28;20178;-68
2023/07/01 07:53:32;;;;;;;3.03;2.13;;;20.10;99.90;;;;;;5016952;28;20182;-68
2023/07/01 07:55:58;;;;;;;3.30;1.70;;;20.10;99.90;;;;;;5017352;28;20202;-68
2023/07/01 07:58:23;;;;;;;1.63;1.50;;;20.20;99.90;;;;;;5022316;28;20174;-68
2023/07/01 08:00:51;;;;;;;2.45;1.50;;;20.30;99.90;;;;;;5017225;28;20246;-68
2023/07/01 08:03:17;;;;;;;2.05;1.40;;;20.30;99.90;;;;;;5016279;28;20201;-69
2023/07/01 08:05:42;;;;;;;2.42;1.50;;;20.30;99.90;;;;;;5017072;28;20186;-68
2023/07/01 08:08:13;;;;;;;1.83;1.35;;;20.30;99.90;;;;;;5031669;28;20198;-67
2023/07/01 08:10:44;;;;;;;2.35;1.50;;;20.40;99.90;;;;;;5016753;28;20193;-69
2023/07/01 08:13:09;;;;;;;2.72;1.48;;;20.40;99.90;;;;;;5020318;28;20189;-67
2023/07/01 08:15:37;;;;;;;1.73;1.30;;;20.40;99.90;;;;;;5017021;28;20206;-68
2023/07/01 08:18:03;;;;;;;2.72;1.40;;;20.50;99.90;;;;;;5018088;28;20237;-69
2023/07/01 08:20:29;;;;;;;2.67;1.40;;;20.60;99.90;;;;;;5016513;28;20278;-68
2023/07/01 08:22:56;;;;;;;2.30;1.27;;;20.60;99.90;;;;;;5029943;28;20224;-69
2023/07/01 08:25:22;;;;;;;1.48;1.15;;;20.60;99.90;;;;;;5017331;28;20173;-66
2023/07/01 08:27:50;;;;;;;1.77;1.25;;;20.60;99.90;;;;;;5036004;28;20228;-68
2023/07/01 08:30:16;;;;;;;1.63;1.40;;;20.60;99.90;;;;;;5030053;28;20261;-68
2023/07/01 08:32:42;;;;;;;5.45;1.40;;;20.60;99.90;;;;;;5032761;28;20261;-69
2023/07/01 08:35:08;;;;;;;1.92;1.42;;;20.60;99.90;;;;;;5016134;28;20261;-67
2023/07/01 08:37:34;;;;;;;1.60;1.20;;;20.60;99.90;;;;;;5007697;28;20252;-68
2023/07/01 08:40:00;;;;;;;1.67;1.30;;;20.50;99.90;;;;;;5016235;28;20178;-68
2023/07/01 08:42:35;;;;;;;2.72;1.33;;;20.50;99.90;;;;;;5026890;28;20201;-65
2023/07/01 08:45:05;;;;;;;2.72;1.40;;;20.50;99.90;;;;;;5016802;28;20249;-66
2023/07/01 08:47:33;;;;;;;2.67;1.40;;;20.40;99.90;;;;;;5013196;28;20175;-68
2023/07/01 08:50:03;;;;;;;3.20;1.90;;;20.40;99.90;;;;;;5020206;28;20290;-69
2023/07/01 08:52:36;;;;;;;2.85;1.27;;;20.30;99.90;;;;;;5013648;28;20183;-64
2023/07/01 08:55:01;;;;;;;3.83;1.50;;;20.30;99.90;;;;;;5036578;28;20224;-68
2023/07/01 08:57:30;;;;;;;1.92;1.20;;;20.30;99.90;;;;;;5013910;28;20182;-67
2023/07/01 08:59:58;;;;;;;2.58;1.80;;;20.30;99.90;;;;;;5025667;28;20177;-69
2023/07/01 09:02:25;;;;;;;2.53;1.60;;;20.30;99.90;;;;;;5013984;28;20208;-67
2023/07/01 09:04:53;;;;;;;1.70;1.45;;;20.20;99.90;;;;;;5021087;28;20209;-69
2023/07/01 09:07:21;;;;;;;2.00;1.25;;;20.20;99.90;;;;;;5013780;28;20218;-67
2023/07/01 09:09:48;;;;;;;1.73;1.30;;;20.20;99.90;;;;;;5035503;28;20194;-69
2023/07/01 09:12:14;;;;;;;4.22;2.35;;;20.20;99.90;;;;;;5026738;28;20166;-68
2023/07/01 09:15:03;;;;;;;2.20;1.75;;;20.10;99.90;;;;;;5020769;28;20261;-68
2023/07/01 09:17:39;;;;;;;2.70;1.60;;;20.20;99.90;;;;;;5037484;28;20186;-69
2023/07/01 09:20:07;;;;;;;1.50;1.20;;;20.30;99.90;;;;;;5017665;28;20174;-69
2023/07/01 09:22:34;;;;;;;2.17;1.25;;;20.30;99.90;;;;;;5032154;28;20202;-67
2023/07/01 09:25:05;;;;;;;1.83;1.23;;;20.40;99.90;;;;;;5031159;28;20201;-70
2023/07/01 09:27:41;;;;;;;1.95;1.20;;;20.60;99.90;;;;;;5025330;28;20177;-68
2023/07/01 09:30:28;;;;;;;3.05;1.17;;;20.70;99.90;;;;;;5028359;28;20682;-66
2023/07/01 09:33:16;;;;;;;1.95;1.20;;;20.90;99.90;;;;;;5032041;28;20185;-68
2023/07/01 09:35:44;;;;;;;1.73;1.15;;;21.00;99.90;;;;;;5016574;28;20256;-69
2023/07/01 09:38:10;;;;;;;1.15;1.05;;;21.20;99.90;;;;;;5019750;28;20189;-70
2023/07/01 09:40:38;;;;;;;1.55;1.20;;;21.20;99.90;;;;;;5019434;28;20190;-71
2023/07/01 09:43:06;;;;;;;1.95;1.33;;;21.30;99.90;;;;;;5024394;28;20209;-68
2023/07/01 09:45:32;;;;;;;1.33;1.10;;;21.30;99.90;;;;;;5013085;28;20192;-71
2023/07/01 09:48:12;;;;;;;1.92;1.33;;;21.40;99.90;;;;;;5025180;28;20178;-70
2023/07/01 09:50:40;;;;;;;1.25;0.90;;;21.30;99.90;;;;;;5019958;28;20214;-70
2023/07/01 09:53:22;;;;;;;2.92;1.00;;;21.30;99.90;;;;;;5021713;28;20182;-70
2023/07/01 09:55:50;;;;;;;1.52;1.10;;;21.30;99.90;;;;;;5014292;28;20247;-71
2023/07/01 09:58:21;;;;;;;1.85;1.23;;;21.20;99.90;;;;;;5009723;28;20173;-71
2023/07/01 10:00:48;;;;;;;1.55;1.30;;;21.10;99.90;;;;;;5019374;28;20188;-70
2023/07/01 10:03:15;;;;;;;2.22;1.42;;;21.10;99.90;;;;;;5013606;28;20244;-70
2023/07/01 10:05:44;;;;;;;1.20;1.10;;;21.00;99.90;;;;;;5019158;28;20185;-72
2023/07/01 10:08:09;;;;;;;2.10;1.90;;;21.00;99.90;;;;;;5019992;28;20173;-72
2023/07/01 10:10:35;;;;;;;2.53;1.65;;;21.00;99.90;;;;;;5018076;28;20204;-69
2023/07/01 10:13:02;;;;;;;1.70;1.58;;;21.10;99.90;;;;;;5018128;28;20189;-70
2023/07/01 10:15:38;;;;;;;1.23;1.13;;;21.10;99.90;;;;;;5022316;28;20189;-68
2023/07/01 10:18:22;;;;;;;1.88;1.48;;;21.20;99.90;;;;;;5017907;28;20194;-72
2023/07/01 10:20:51;;;;;;;1.27;1.10;;;21.20;99.90;;;;;;5018107;28;20208;-69
2023/07/01 10:23:18;;;;;;;1.65;1.17;;;21.30;99.90;;;;;;5012807;28;20267;-72
2023/07/01 10:25:43;;;;;;;1.08;0.98;;;21.30;99.90;;;;;;5021545;28;20200;-70
2023/07/01 10:28:15;;;;;;;1.17;1.02;;;21.40;99.90;;;;;;5021713;28;20386;-73
2023/07/01 10:30:43;;;;;;;1.45;1.20;;;21.50;99.90;;;;;;5025676;28;20205;-75
2023/07/01 10:33:28;;;;;;;1.00;0.90;;;21.50;99.90;;;;;;5018204;28;20282;-73
2023/07/01 10:36:17;;;;;;;1.20;1.10;;;21.60;99.90;;;;;;5036428;28;20243;-74
2023/07/01 10:38:46;;;;;;;2.10;1.88;;;21.60;99.90;;;;;;5026441;28;20265;-73
2023/07/01 10:41:11;;;;;;;2.35;1.40;;;21.60;99.90;;;;;;5018488;28;20325;-72
2023/07/01 10:43:42;;;;;;;1.25;1.15;;;21.60;99.90;;;;;;5017085;28;20288;-71
2023/07/01 10:46:19;;;;;;;1.33;1.00;;;21.60;99.90;;;;;;5025205;28;20265;-71
2023/07/01 10:49:03;;;;;;;1.20;1.10;;;21.60;99.90;;;;;;5028828;28;20185;-71
2023/07/01 10:51:50;;;;;;;1.45;1.00;;;21.60;99.90;;;;;;5017044;28;20182;-71
2023/07/01 10:54:30;;;;;;;1.10;1.00;;;21.50;99.90;;;;;;5018249;28;20279;-71
2023/07/01 10:57:15;;;;;;;1.27;1.02;;;21.50;99.90;;;;;;5019573;28;20209;-72
2023/07/01 10:59:42;;;;;;;1.35;0.80;;;21.50;99.90;;;;;;5018544;28;20189;-72
2023/07/01 11:02:09;;;;;;;1.00;0.90;;;21.40;99.90;;;;;;5018976;28;20206;-72
2023/07/01 11:04:54;;;;;;;0.70;0.70;;;21.40;99.90;;;;;;5016559;28;20194;-71
2023/07/01 11:07:27;;;;;;;0.88;0.70;;;21.40;99.90;;;;;;5019340;28;20174;-71
2023/07/01 11:09:56;;;;;;;2.45;0.80;;;21.40;99.90;;;;;;5018889;28;20170;-72
2023/07/01 11:12:25;;;;;;;0.60;0.60;;;21.30;99.90;;;;;;5017505;28;20424;-71
2023/07/01 11:14:55;;;;;;;2.58;1.73;;;21.30;99.90;;;;;;5029530;28;20237;-72
2023/07/01 11:17:26;;;;;;;1.30;1.20;;;21.30;99.90;;;;;;5004646;28;20189;-71
2023/07/01 11:19:56;;;;;;;0.88;0.82;;;21.30;99.90;;;;;;5021401;28;20178;-72
2023/07/01 11:22:22;;;;;;;1.98;0.90;;;21.30;99.90;;;;;;5018660;28;20313;-72
2023/07/01 11:24:48;;;;;;;1.45;0.80;;;21.40;99.90;;;;;;5017343;28;20292;-72
2023/07/01 11:27:17;;;;;;;0.90;0.70;;;21.40;99.90;;;;;;5018575;28;20300;-71
2023/07/01 11:29:47;;;;;;;0.60;0.60;;;21.40;99.90;;;;;;5031726;28;20193;-72
2023/07/01 11:32:17;;;;;;;0.70;0.70;;;21.40;99.90;;;;;;5022585;28;20194;-71
2023/07/01 11:34:46;;;;;;;1.00;0.68;;;21.40;99.90;;;;;;5013219;28;20217;-71
2023/07/01 11:37:25;;;;;;;1.77;0.80;;;21.40;99.90;;;;;;5018410;28;20182;-70
2023/07/01 11:39:52;;;;;;;0.93;0.70;;;21.40;99.90;;;;;;5017861;28;20237;-70
2023/07/01 11:42:18;;;;;;;0.80;0.80;;;21.40;99.90;;;;;;5017656;28;20186;-70
2023/07/01 11:44:44;;;;;;;0.98;0.60;;;21.40;99.90;;;;;;5027106;28;20194;-70
2023/07/01 11:47:14;;;;;;;0.50;0.50;;;21.40;99.90;;;;;;5034492;28;20292;-71
2023/07/01 11:49:40;;;;;;;0.82;0.60;;;21.40;99.90;;;;;;5011494;28;20196;-72
2023/07/01 11:52:07;;;;;;;1.00;0.50;;;21.30;99.90;;;;;;5016486;28;20173;-70
2023/07/01 11:54:38;;;;;;;1.40;0.75;;;21.30;99.90;;;;;;5025310;28;20190;-71
2023/07/01 11:57:24;;;;;;;0.50;0.40;;;21.30;99.90;;;;;;5017838;28;20174;-71
2023/07/01 12:00:01;;;;;;;0.70;0.50;;;21.30;99.90;;;;;;5022131;28;20209;-71
2023/07/01 12:02:27;;;;;;;0.52;0.50;;;21.40;99.90;;;;;;5013030;28;20283;-71
2023/07/01 12:04:53;;;;;;;0.77;0.40;;;21.40;99.90;;;;;;5016910;28;20255;-70
2023/07/01 12:07:18;;;;;;;0.40;0.38;;;21.40;99.90;;;;;;5019343;28;20194;-70
2023/07/01 12:09:45;;;;;;;0.50;0.40;;;21.50;99.90;;;;;;5032027;28;20173;-70
2023/07/01 12:12:14;;;;;;;0.50;0.50;;;21.50;99.90;;;;;;5017531;28;20185;-70
2023/07/01 12:14:40;;;;;;;1.17;0.70;;;21.50;99.90;;;;;;5016713;28;20232;-71
2023/07/01 12:17:22;;;;;;;0.77;0.68;;;21.60;99.90;;;;;;5017775;28;20261;-70
2023/07/01 12:19:50;;;;;;;0.40;0.40;;;21.60;99.90;;;;;;4998957;28;20199;-69
2023/07/01 12:22:18;;;;;;;2.25;0.50;;;21.70;99.90;;;;;;5015868;28;20186;-70
2023/07/01 12:24:44;;;;;;;0.50;0.50;;;21.70;99.90;;;;;;5024666;28;20205;-71
2023/07/01 12:27:09;;;;;;;0.35;0.30;;;21.70;99.90;;;;;;5017904;28;20243;-72
2023/07/01 12:29:35;;;;;;;0.40;0.40;;;21.70;99.90;;;;;;5018794;28;20209;-71
2023/07/01 12:32:04;;;;;;;0.90;0.50;;;21.70;99.90;;;;;;5016670;28;20221;-70
2023/07/01 12:34:29;;;;;;;0.50;0.30;;;21.70;99.90;;;;;;5019925;28;20185;-70
2023/07/01 12:36:55;;;;;;;1.63;0.50;;;21.80;99.90;;;;;;5024190;28;20181;-70
2023/07/01 12:39:23;;;;;;;0.60;0.60;;;21.80;99.90;;;;;;5019761;28;20224;-70
2023/07/01 12:41:53;;;;;;;0.50;0.50;;;21.90;99.90;;;;;;5015121;28;20185;-70
2023/07/01 12:44:23;;;;;;;0.80;0.50;;;21.90;99.90;;;;;;5019128;28;20268;-71
2023/07/01 12:46:52;;;;;;;0.85;0.75;;;21.90;99.90;;;;;;5019993;28;20175;-71
2023/07/01 12:49:21;;;;;;;0.35;0.32;;;22.00;99.90;;;;;;5021096;28;20198;-72
2023/07/01 12:51:49;;;;;;;1.25;0.30;;;22.00;99.90;;;;;;5022131;28;20258;-70
2023/07/01 12:54:15;;;;;;;0.32;0.32;;;22.00;99.90;;;;;;5025961;28;20316;-72
2023/07/01 12:56:43;;;;;;;1.52;0.80;;;22.00;99.90;;;;;;5040568;28;20189;-71